createdAt,value
2019-03-23T00:03:14.688Z,96.95
2019-03-23T00:05:43.279Z,96.61
2019-03-23T00:08:23.931Z,96.67
2019-03-23T00:10:42.100Z,96.66
2019-03-23T00:16:25.100Z,96.84
2019-03-23T00:18:53.540Z,96.90
2019-03-23T00:21:22.088Z,96.90
2019-03-23T00:23:50.820Z,97.02
2019-03-23T00:26:19.515Z,97.35
2019-03-23T00:28:47.888Z,97.17
2019-03-23T00:31:16.366Z,97.19
2019-03-23T00:33:44.918Z,97.36
2019-03-23T00:36:13.356Z,97.43
2019-03-23T00:38:41.837Z,97.40
2019-03-23T00:41:10.204Z,97.49
2019-03-23T00:43:39.067Z,97.48
2019-03-23T00:46:07.638Z,97.30
2019-03-23T00:48:35.999Z,97.28
2019-03-23T00:51:04.460Z,97.47
2019-03-23T00:53:33.227Z,97.45
2019-03-23T00:56:01.746Z,97.47
2019-03-23T00:58:30.493Z,97.50
2019-03-23T01:00:58.931Z,97.32
2019-03-23T01:03:27.753Z,97.34
2019-03-23T01:05:56.208Z,97.24
2019-03-23T01:08:24.872Z,97.44
2019-03-23T01:10:53.394Z,97.52
2019-03-23T01:13:21.773Z,97.44
2019-03-23T01:15:50.184Z,97.47
2019-03-23T01:18:18.639Z,97.56
2019-03-23T01:20:49.925Z,97.55
2019-03-23T01:23:17.295Z,97.72
2019-03-23T01:25:45.655Z,97.62
2019-03-23T01:28:14.063Z,97.69
2019-03-23T01:30:42.571Z,97.49
2019-03-23T01:33:11.323Z,97.55
2019-03-23T01:35:40.189Z,97.85
2019-03-23T01:38:08.977Z,97.68
2019-03-23T01:40:37.758Z,97.87
2019-03-23T01:43:06.851Z,97.70
2019-03-23T01:45:35.366Z,97.65
2019-03-23T01:48:04.121Z,97.70
2019-03-23T01:50:32.619Z,97.82
2019-03-23T01:53:01.078Z,97.93
2019-03-23T01:55:29.761Z,97.77
2019-03-23T01:57:58.220Z,97.53
2019-03-23T02:00:26.854Z,97.50
2019-03-23T02:02:55.255Z,97.55
2019-03-23T02:05:23.895Z,97.79
2019-03-23T02:07:52.298Z,97.89
2019-03-23T02:10:20.752Z,97.80
2019-03-23T02:12:49.297Z,97.85
2019-03-23T02:15:17.840Z,97.78
2019-03-23T02:17:46.729Z,97.82
2019-03-23T02:20:55.429Z,97.69
2019-03-23T02:23:23.928Z,97.75
2019-03-23T02:25:52.313Z,98.07
2019-03-23T02:28:20.810Z,98.17
2019-03-23T02:33:43.990Z,98.17
2019-03-23T02:36:12.497Z,98.14
2019-03-23T02:38:40.970Z,98.21
2019-03-23T02:41:09.833Z,98.24
2019-03-23T02:43:38.222Z,98.38
2019-03-23T02:46:06.763Z,98.34
2019-03-23T02:48:35.273Z,98.38
2019-03-23T02:51:03.738Z,98.28
2019-03-23T02:53:32.547Z,98.40
2019-03-23T02:56:00.937Z,98.63
2019-03-23T02:58:29.390Z,98.60
2019-03-23T03:00:57.957Z,98.81
2019-03-23T03:03:26.416Z,99.11
2019-03-23T03:05:54.791Z,99.19
2019-03-23T03:08:23.213Z,99.21
2019-03-23T03:10:51.694Z,99.50
2019-03-23T03:13:20.508Z,99.46
2019-03-23T03:15:49.049Z,99.34
2019-03-23T03:18:17.506Z,99.56
2019-03-23T03:20:46.274Z,99.45
2019-03-23T03:23:14.724Z,99.52
2019-03-23T03:25:43.553Z,99.30
2019-03-23T03:28:12.336Z,99.38
2019-03-23T03:30:41.119Z,99.15
2019-03-23T03:33:10.015Z,99.26
2019-03-23T03:35:38.518Z,99.42
2019-03-23T03:38:07.282Z,99.25
2019-03-23T03:40:35.813Z,99.20
2019-03-23T03:43:04.404Z,99.17
2019-03-23T03:45:32.976Z,99.21
2019-03-23T03:48:01.413Z,99.07
2019-03-23T03:50:29.900Z,98.87
2019-03-23T03:52:58.700Z,98.81
2019-03-23T03:55:27.185Z,99.15
2019-03-23T03:57:55.765Z,99.29
2019-03-23T04:00:24.151Z,98.94
2019-03-23T04:02:52.621Z,98.97
2019-03-23T04:05:21.229Z,99.01
2019-03-23T04:07:49.633Z,98.77
2019-03-23T04:10:18.377Z,98.70
2019-03-23T04:12:47.157Z,98.63
2019-03-23T04:15:15.756Z,98.62
2019-03-23T04:17:44.231Z,98.54
2019-03-23T04:20:12.776Z,98.67
2019-03-23T04:22:41.261Z,98.61
2019-03-23T04:25:49.673Z,98.24
2019-03-23T04:28:18.146Z,98.16
2019-03-23T04:30:46.647Z,98.44
2019-03-23T04:33:15.200Z,98.30
2019-03-23T04:35:43.590Z,98.15
2019-03-23T04:38:22.232Z,98.01
2019-03-23T04:40:42.255Z,98.01
2019-03-23T04:43:11.037Z,97.98
2019-03-23T04:45:58.784Z,98.00
2019-03-23T04:48:27.366Z,98.04
2019-03-23T04:50:55.746Z,97.93
2019-03-23T04:53:24.169Z,97.77
2019-03-23T04:55:52.692Z,97.77
2019-03-23T04:58:21.139Z,97.88
2019-03-23T05:00:49.595Z,97.85
2019-03-23T05:03:17.973Z,97.73
2019-03-23T05:05:46.529Z,97.67
2019-03-23T05:08:14.911Z,97.53
2019-03-23T05:10:43.291Z,97.40
2019-03-23T05:13:11.691Z,97.38
2019-03-23T05:15:40.106Z,97.37
2019-03-23T05:18:08.571Z,97.11
2019-03-23T05:20:36.984Z,96.99
2019-03-23T05:23:05.510Z,97.13
2019-03-23T05:25:34.033Z,97.18
2019-03-23T05:28:02.492Z,97.07
2019-03-23T05:30:31.019Z,97.01
2019-03-23T05:32:59.733Z,97.11
2019-03-23T05:35:28.226Z,97.13
2019-03-23T05:37:56.768Z,97.13
2019-03-23T05:40:25.281Z,97.04
2019-03-23T05:42:53.683Z,97.04
2019-03-23T05:45:22.149Z,96.96
2019-03-23T05:47:50.617Z,96.88
2019-03-23T05:50:19.119Z,96.71
2019-03-23T05:52:47.650Z,96.66
2019-03-23T05:55:16.080Z,96.46
2019-03-23T05:57:44.697Z,96.44
2019-03-23T06:03:02.272Z,96.33
2019-03-23T06:05:30.989Z,96.11
2019-03-23T06:07:59.508Z,96.14
2019-03-23T06:10:28.363Z,96.14
2019-03-23T06:12:56.833Z,96.19
2019-03-23T06:15:25.296Z,95.83
2019-03-23T06:17:53.680Z,95.73
2019-03-23T06:20:22.185Z,95.49
2019-03-23T06:22:50.598Z,95.08
2019-03-23T06:25:19.110Z,94.07
2019-03-23T06:27:47.536Z,93.33
2019-03-23T06:30:16.013Z,91.96
2019-03-23T06:35:39.406Z,91.33
2019-03-23T06:38:07.955Z,90.83
2019-03-23T06:40:36.486Z,90.40
2019-03-23T06:43:04.925Z,90.10
2019-03-23T06:45:33.402Z,90.70
2019-03-23T06:48:02.225Z,90.77
2019-03-23T06:50:30.774Z,90.83
2019-03-23T06:52:59.254Z,90.74
2019-03-23T06:55:27.880Z,90.75
2019-03-23T07:00:45.381Z,90.17
2019-03-23T07:03:13.845Z,90.54
2019-03-23T07:05:42.237Z,90.67
2019-03-23T07:08:11.087Z,89.03
2019-03-23T07:10:39.500Z,86.53
2019-03-23T07:13:07.962Z,86.31
2019-03-23T07:15:36.428Z,84.98
2019-03-23T07:18:04.950Z,85.35
2019-03-23T07:20:33.395Z,84.16
2019-03-23T07:23:01.784Z,80.86
2019-03-23T07:25:30.265Z,81.17
2019-03-23T07:27:58.765Z,80.56
2019-03-23T07:30:27.227Z,78.70
2019-03-23T07:32:55.599Z,78.58
2019-03-23T07:35:24.006Z,77.33
2019-03-23T07:37:52.479Z,77.39
2019-03-23T07:40:20.998Z,77.40
2019-03-23T07:42:49.480Z,77.55
2019-03-23T07:45:18.009Z,76.97
2019-03-23T07:47:46.801Z,77.33
2019-03-23T07:50:55.275Z,76.44
2019-03-23T07:53:23.666Z,76.84
2019-03-23T07:55:52.196Z,75.35
2019-03-23T07:58:20.679Z,76.00
2019-03-23T08:00:49.193Z,76.44
2019-03-23T08:03:17.750Z,76.74
2019-03-23T08:05:46.638Z,76.60
2019-03-23T08:08:15.136Z,75.52
2019-03-23T08:10:43.749Z,75.48
2019-03-23T08:13:12.494Z,76.25
2019-03-23T08:15:43.528Z,74.51
2019-03-23T08:18:12.020Z,73.34
2019-03-23T08:23:35.127Z,72.53
2019-03-23T08:26:04.106Z,68.79
2019-03-23T08:28:32.664Z,67.72
2019-03-23T08:31:01.293Z,67.08
2019-03-23T08:33:30.059Z,67.95
2019-03-23T08:35:58.838Z,65.92
2019-03-23T08:41:35.483Z,64.79
2019-03-23T08:44:04.002Z,64.80
2019-03-23T08:46:32.508Z,64.26
2019-03-23T08:49:01.507Z,60.99
2019-03-23T08:51:29.937Z,60.90
2019-03-23T08:53:58.860Z,59.26
2019-03-23T08:56:27.251Z,58.63
2019-03-23T08:58:56.047Z,56.66
2019-03-23T09:01:24.664Z,56.92
2019-03-23T09:03:53.030Z,53.99
2019-03-23T09:06:21.780Z,54.29
2019-03-23T09:08:50.250Z,52.91
2019-03-23T09:11:20.629Z,52.11
2019-03-23T09:13:49.278Z,51.12
2019-03-23T09:16:17.701Z,50.33
2019-03-23T09:18:46.204Z,49.50
2019-03-23T09:21:14.922Z,49.83
2019-03-23T09:23:43.338Z,47.33
2019-03-23T09:26:13.652Z,49.64
2019-03-23T09:28:41.845Z,48.99
2019-03-23T09:31:10.438Z,46.38
2019-03-23T09:33:38.891Z,47.02
2019-03-23T09:36:07.761Z,47.15
2019-03-23T09:38:36.293Z,46.64
2019-03-23T09:41:05.343Z,47.79
2019-03-23T09:43:33.710Z,46.01
2019-03-23T09:46:02.202Z,46.67
2019-03-23T09:48:30.815Z,47.21
2019-03-23T09:50:59.689Z,47.71
2019-03-23T09:53:28.154Z,47.46
2019-03-23T09:55:57.056Z,47.51
2019-03-23T09:58:25.500Z,48.70
2019-03-23T10:00:54.003Z,48.42
2019-03-23T10:03:22.483Z,48.52
2019-03-23T10:05:51.299Z,49.37
2019-03-23T10:08:19.888Z,48.84
2019-03-23T10:10:48.673Z,49.94
2019-03-23T10:13:17.165Z,50.08
2019-03-23T10:15:45.945Z,50.19
2019-03-23T10:18:14.332Z,50.31
2019-03-23T10:20:42.716Z,49.97
2019-03-23T10:23:11.185Z,50.61
2019-03-23T10:25:39.708Z,51.61
2019-03-23T10:28:08.192Z,51.94
2019-03-23T10:30:36.991Z,51.30
2019-03-23T10:33:05.568Z,49.82
2019-03-23T10:35:34.107Z,50.50
2019-03-23T10:38:02.627Z,50.12
2019-03-23T10:40:32.790Z,47.84
2019-03-23T10:43:01.567Z,46.51
2019-03-23T10:45:30.188Z,43.83
2019-03-23T10:47:58.656Z,42.03
2019-03-23T10:50:27.041Z,40.55
2019-03-23T10:52:55.567Z,41.17
2019-03-23T10:55:24.319Z,38.95
2019-03-23T10:57:53.218Z,39.54
2019-03-23T11:00:21.675Z,39.79
2019-03-23T11:02:50.145Z,39.80
2019-03-23T11:05:18.836Z,39.67
2019-03-23T11:07:47.359Z,39.03
2019-03-23T11:10:16.013Z,38.83
2019-03-23T11:12:46.555Z,40.06
2019-03-23T11:15:15.462Z,39.99
2019-03-23T11:17:43.941Z,39.99
2019-03-23T11:20:52.672Z,40.08
2019-03-23T11:23:21.053Z,41.42
2019-03-23T11:25:49.627Z,42.27
2019-03-23T11:28:18.149Z,42.14
2019-03-23T11:30:46.767Z,43.02
2019-03-23T11:33:15.311Z,42.42
2019-03-23T11:35:43.809Z,42.46
2019-03-23T11:38:12.443Z,41.44
2019-03-23T11:40:41.022Z,39.70
2019-03-23T11:43:09.584Z,37.24
2019-03-23T11:45:37.987Z,36.99
2019-03-23T11:48:06.527Z,36.74
2019-03-23T11:50:35.084Z,35.75
2019-03-23T11:53:03.713Z,33.75
2019-03-23T11:55:32.172Z,33.53
2019-03-23T11:58:00.730Z,35.13
2019-03-23T12:00:29.379Z,34.58
2019-03-23T12:02:58.007Z,34.93
2019-03-23T12:05:26.889Z,33.92
2019-03-23T12:07:55.438Z,33.22
2019-03-23T12:10:23.812Z,33.85
2019-03-23T12:12:52.257Z,33.13
2019-03-23T12:15:20.846Z,32.52
2019-03-23T12:17:49.319Z,31.89
2019-03-23T12:20:17.780Z,32.84
2019-03-23T12:22:46.248Z,32.94
2019-03-23T12:25:14.828Z,31.53
2019-03-23T12:27:43.499Z,31.15
2019-03-23T12:30:51.935Z,30.87
2019-03-23T12:33:21.479Z,30.55
2019-03-23T12:35:50.654Z,30.79
2019-03-23T12:38:19.106Z,31.53
2019-03-23T12:40:47.930Z,30.31
2019-03-23T12:43:16.486Z,30.67
2019-03-23T12:45:44.885Z,31.06
2019-03-23T12:48:13.519Z,29.88
2019-03-23T12:50:42.141Z,30.35
2019-03-23T12:53:10.611Z,30.63
2019-03-23T12:55:39.071Z,33.20
2019-03-23T12:58:07.634Z,35.62
2019-03-23T13:00:36.006Z,37.64
2019-03-23T13:03:04.475Z,39.13
2019-03-23T13:05:33.000Z,38.97
2019-03-23T13:08:41.430Z,38.79
2019-03-23T13:11:09.968Z,39.07
2019-03-23T13:13:38.758Z,39.69
2019-03-23T13:16:07.460Z,40.69
2019-03-23T13:18:35.904Z,41.22
2019-03-23T13:21:04.409Z,41.96
2019-03-23T13:23:32.868Z,41.42
2019-03-23T13:26:01.787Z,41.62
2019-03-23T13:28:30.271Z,41.06
2019-03-23T13:30:58.766Z,40.47
2019-03-23T13:33:27.538Z,40.52
2019-03-23T13:35:55.937Z,41.03
2019-03-23T13:38:24.701Z,42.04
2019-03-23T13:40:53.230Z,43.11
2019-03-23T13:43:21.877Z,42.93
2019-03-23T13:45:50.305Z,42.61
2019-03-23T13:48:18.802Z,43.40
2019-03-23T13:50:47.373Z,42.37
2019-03-23T13:53:15.872Z,41.70
2019-03-23T13:55:44.596Z,40.91
2019-03-23T13:58:32.421Z,40.87
2019-03-23T14:01:00.859Z,41.18
2019-03-23T14:03:29.393Z,40.07
2019-03-23T14:05:57.973Z,39.56
2019-03-23T14:08:26.526Z,39.40
2019-03-23T14:10:55.006Z,38.38
2019-03-23T14:13:23.485Z,39.16
2019-03-23T14:15:52.316Z,40.18
2019-03-23T14:18:20.797Z,40.20
2019-03-23T14:20:49.342Z,40.64
2019-03-23T14:23:18.401Z,40.68
2019-03-23T14:25:47.268Z,40.75
2019-03-23T14:28:15.920Z,41.41
2019-03-23T14:30:44.355Z,41.90
2019-03-23T14:33:12.903Z,42.71
2019-03-23T14:35:41.504Z,42.31
2019-03-23T14:38:10.076Z,42.22
2019-03-23T14:40:38.531Z,43.36
2019-03-23T14:43:07.361Z,43.92
2019-03-23T14:45:36.991Z,44.07
2019-03-23T14:48:06.125Z,44.79
2019-03-23T14:53:23.818Z,45.11
2019-03-23T14:55:52.353Z,44.66
2019-03-23T14:58:20.757Z,44.10
2019-03-23T15:00:49.573Z,44.37
2019-03-23T15:03:18.073Z,44.57
2019-03-23T15:05:46.949Z,44.95
2019-03-23T15:08:15.482Z,45.45
2019-03-23T15:10:43.951Z,46.08
2019-03-23T15:13:12.548Z,46.87
2019-03-23T15:15:41.055Z,47.10
2019-03-23T15:18:09.588Z,47.38
2019-03-23T15:20:38.158Z,47.57
2019-03-23T15:23:06.700Z,48.80
2019-03-23T15:25:35.274Z,49.22
2019-03-23T15:28:03.869Z,50.00
2019-03-23T15:30:32.531Z,49.70
2019-03-23T15:33:01.165Z,50.00
2019-03-23T15:35:29.680Z,50.50
2019-03-23T15:37:58.181Z,51.13
2019-03-23T15:40:26.730Z,51.64
2019-03-23T15:42:55.617Z,52.02
2019-03-23T15:45:24.121Z,52.35
2019-03-23T15:47:52.720Z,52.66
2019-03-23T15:50:21.222Z,54.05
2019-03-23T15:52:49.897Z,54.69
2019-03-23T15:55:39.180Z,55.45
2019-03-23T15:58:07.736Z,56.11
2019-03-23T16:00:36.281Z,56.23
2019-03-23T16:03:05.087Z,56.80
2019-03-23T16:05:33.619Z,57.33
2019-03-23T16:08:02.250Z,57.27
2019-03-23T16:10:30.884Z,58.01
2019-03-23T16:12:59.352Z,58.54
2019-03-23T16:18:15.555Z,59.29
2019-03-23T16:20:44.065Z,60.06
2019-03-23T16:23:12.445Z,60.58
2019-03-23T16:25:40.926Z,60.73
2019-03-23T16:28:09.449Z,60.69
2019-03-23T16:30:38.107Z,61.36
2019-03-23T16:33:06.574Z,61.45
2019-03-23T16:35:35.108Z,61.97
2019-03-23T16:38:03.660Z,62.15
2019-03-23T16:40:32.063Z,61.90
2019-03-23T16:43:19.805Z,62.05
2019-03-23T16:45:48.810Z,62.57
2019-03-23T16:48:17.435Z,62.71
2019-03-23T16:50:46.285Z,62.50
2019-03-23T16:53:14.764Z,62.35
2019-03-23T16:55:43.198Z,62.27
2019-03-23T16:58:16.144Z,62.65
2019-03-23T17:00:41.825Z,62.68
2019-03-23T17:05:59.260Z,62.44
2019-03-23T17:08:27.640Z,62.50
2019-03-23T17:10:56.225Z,62.52
2019-03-23T17:13:24.951Z,62.51
2019-03-23T17:15:53.452Z,62.76
2019-03-23T17:18:21.928Z,63.43
2019-03-23T17:20:50.435Z,63.28
2019-03-23T17:23:18.915Z,63.43
2019-03-23T17:25:47.426Z,63.81
2019-03-23T17:28:15.826Z,64.02
2019-03-23T17:30:44.531Z,65.06
2019-03-23T17:33:13.022Z,64.84
2019-03-23T17:35:41.802Z,64.88
2019-03-23T17:38:10.387Z,64.84
2019-03-23T17:40:39.177Z,65.37
2019-03-23T17:43:07.592Z,65.36
2019-03-23T17:45:36.146Z,65.69
2019-03-23T17:48:04.580Z,65.97
2019-03-23T17:50:33.521Z,65.59
2019-03-23T17:53:02.122Z,66.01
2019-03-23T17:55:30.531Z,65.97
2019-03-23T17:57:58.942Z,65.66
2019-03-23T18:00:27.497Z,65.13
2019-03-23T18:02:56.030Z,65.39
2019-03-23T18:05:24.996Z,65.20
2019-03-23T18:07:53.810Z,65.02
2019-03-23T18:10:43.254Z,65.23
2019-03-23T18:13:16.468Z,64.98
2019-03-23T18:15:42.617Z,65.11
2019-03-23T18:18:11.817Z,65.29
2019-03-23T18:20:40.251Z,65.41
2019-03-23T18:25:57.821Z,65.69
2019-03-23T18:28:26.289Z,65.71
2019-03-23T18:30:54.717Z,65.85
2019-03-23T18:36:12.657Z,66.10
2019-03-23T18:41:30.614Z,66.48
2019-03-23T18:43:59.339Z,66.83
2019-03-23T18:46:27.823Z,66.86
2019-03-23T18:48:56.581Z,67.16
2019-03-23T18:51:25.263Z,67.22
2019-03-23T18:53:53.743Z,68.02
2019-03-23T18:56:22.191Z,68.09
2019-03-23T18:58:50.678Z,68.35
2019-03-23T19:01:39.020Z,68.38
2019-03-23T19:04:07.954Z,68.46
2019-03-23T19:06:36.516Z,68.79
2019-03-23T19:09:45.014Z,68.66
2019-03-23T19:12:13.636Z,68.79
2019-03-23T19:14:42.197Z,69.14
2019-03-23T19:17:10.787Z,69.25
2019-03-23T19:19:39.216Z,69.74
2019-03-23T19:22:07.976Z,69.50
2019-03-23T19:24:36.420Z,69.70
2019-03-23T19:27:04.906Z,70.02
2019-03-23T19:29:33.628Z,70.13
2019-03-23T19:32:02.202Z,70.05
2019-03-23T19:34:30.589Z,70.53
2019-03-23T19:36:59.280Z,70.62
2019-03-23T19:39:27.775Z,70.50
2019-03-23T19:41:56.275Z,71.15
2019-03-23T19:44:24.845Z,70.86
2019-03-23T19:46:53.420Z,70.91
2019-03-23T19:49:21.881Z,71.17
2019-03-23T19:51:50.430Z,71.39
2019-03-23T19:54:26.546Z,71.26
2019-03-23T19:56:54.998Z,71.47
2019-03-23T19:59:23.416Z,71.87
2019-03-23T20:01:51.919Z,71.93
2019-03-23T20:04:20.780Z,72.45
2019-03-23T20:06:49.252Z,72.33
2019-03-23T20:09:17.952Z,72.68
2019-03-23T20:11:46.463Z,72.89
2019-03-23T20:14:14.927Z,73.01
2019-03-23T20:16:43.369Z,73.28
2019-03-23T20:19:12.292Z,73.17
2019-03-23T20:21:40.766Z,73.19
2019-03-23T20:24:09.326Z,72.86
2019-03-23T20:26:37.902Z,72.89
2019-03-23T20:29:06.374Z,72.77
2019-03-23T20:31:34.944Z,72.96
2019-03-23T20:34:03.366Z,72.93
2019-03-23T20:36:31.988Z,72.94
2019-03-23T20:39:00.464Z,72.97
2019-03-23T20:41:30.323Z,73.00
2019-03-23T20:44:08.858Z,73.34
2019-03-23T20:46:29.419Z,73.31
2019-03-23T20:48:57.970Z,73.53
2019-03-23T20:51:26.449Z,73.36
2019-03-23T20:54:34.901Z,73.43
2019-03-23T20:57:03.656Z,73.24
2019-03-23T20:59:32.169Z,73.46
2019-03-23T21:02:00.698Z,73.45
2019-03-23T21:04:29.251Z,73.40
2019-03-23T21:06:58.208Z,73.48
2019-03-23T21:09:26.796Z,73.80
2019-03-23T21:11:55.342Z,73.94
2019-03-23T21:14:23.821Z,73.75
2019-03-23T21:16:52.215Z,73.75
2019-03-23T21:19:20.608Z,73.76
2019-03-23T21:21:49.074Z,74.07
2019-03-23T21:24:17.788Z,73.93
2019-03-23T21:26:46.231Z,73.75
2019-03-23T21:29:14.688Z,73.71
2019-03-23T21:31:43.237Z,73.70
2019-03-23T21:34:11.626Z,73.73
2019-03-23T21:36:40.219Z,73.50
2019-03-23T21:39:08.748Z,73.50
2019-03-23T21:41:37.214Z,73.17
2019-03-23T21:44:05.679Z,72.50
2019-03-23T21:46:34.269Z,72.40
2019-03-23T21:49:02.647Z,72.36
2019-03-23T21:51:31.458Z,72.29
2019-03-23T21:54:00.400Z,72.34
2019-03-23T21:56:29.281Z,72.46
2019-03-23T21:58:58.078Z,72.45
2019-03-23T22:01:26.519Z,72.37
2019-03-23T22:03:55.008Z,72.29
2019-03-23T22:06:23.863Z,72.49
2019-03-23T22:08:52.299Z,72.39
2019-03-23T22:11:20.680Z,72.51
2019-03-23T22:13:49.287Z,72.57
2019-03-23T22:16:18.068Z,72.79
2019-03-23T22:18:46.526Z,73.00
2019-03-23T22:21:15.443Z,72.94
2019-03-23T22:23:43.935Z,73.29
2019-03-23T22:26:12.509Z,73.73
2019-03-23T22:28:41.311Z,73.65
2019-03-23T22:31:09.700Z,73.98
2019-03-23T22:33:38.481Z,74.19
2019-03-23T22:36:06.943Z,74.35
2019-03-23T22:38:35.362Z,74.50
2019-03-23T22:41:03.864Z,74.88
2019-03-23T22:43:32.607Z,75.13
2019-03-23T22:46:01.074Z,75.13
2019-03-23T22:48:29.455Z,75.11
2019-03-23T22:50:57.936Z,75.23
2019-03-23T22:53:26.633Z,75.09
2019-03-23T22:55:55.205Z,75.32
2019-03-23T22:58:23.645Z,75.50
2019-03-23T23:01:32.193Z,75.37
2019-03-23T23:04:00.800Z,75.48
2019-03-23T23:06:29.275Z,75.55
2019-03-23T23:08:57.822Z,75.56
2019-03-23T23:11:26.303Z,75.70
2019-03-23T23:13:54.773Z,75.91
2019-03-23T23:16:23.204Z,75.79
2019-03-23T23:18:51.650Z,76.01
2019-03-23T23:21:20.228Z,75.87
2019-03-23T23:23:48.649Z,76.17
2019-03-23T23:26:17.103Z,76.49
2019-03-23T23:28:45.648Z,76.56
2019-03-23T23:31:14.053Z,76.45
2019-03-23T23:33:42.911Z,76.42
2019-03-23T23:36:11.800Z,76.51
2019-03-23T23:38:40.246Z,76.71
2019-03-23T23:41:08.716Z,77.14
2019-03-23T23:43:37.551Z,77.66
2019-03-23T23:46:06.335Z,77.35
2019-03-23T23:48:34.836Z,77.25
2019-03-23T23:51:03.916Z,77.05
2019-03-23T23:53:32.452Z,76.99
2019-03-23T23:56:00.848Z,76.91
2019-03-23T23:58:29.668Z,76.62
